Time;durP1;ratioP1;P1;durP2;ratioP2;P2;SDS_P1;SDS_P2;PMS_P1;PMS_P2;Temp;Humidity;BMP_temperature;BMP_pressure;BME280_temperature;BME280_humidity;BME280_pressure;Samples;Min_cycle;Max_cycle;Signal;HPM_P1;HPM_P2
2021/01/10 00:00:48;;;;;;;27.90;14.33;;;2.00;99.90;;;-0.26;100.00;101079.31;5027086;27;101218;-66
2021/01/10 00:03:16;;;;;;;28.03;14.27;;;2.00;99.90;;;-0.19;100.00;101072.84;5030202;27;100993;-65
2021/01/10 00:05:42;;;;;;;25.27;14.03;;;2.10;99.90;;;-0.24;100.00;101079.22;5030024;27;100260;-66
2021/01/10 00:08:09;;;;;;;29.77;14.47;;;2.20;99.90;;;-0.21;100.00;101079.09;5030528;27;100013;-66
2021/01/10 00:10:35;;;;;;;29.77;15.33;;;2.30;99.90;;;-0.24;100.00;101072.19;5029577;27;100882;-66
2021/01/10 00:13:04;;;;;;;27.00;14.07;;;2.00;99.90;;;-0.21;100.00;101069.41;5029901;27;100276;-65
2021/01/10 00:15:31;;;;;;;25.00;12.50;;;2.10;99.90;;;-0.27;100.00;101076.75;5030374;27;100312;-66
2021/01/10 00:17:58;;;;;;;24.07;13.47;;;2.20;99.90;;;-0.24;100.00;101073.97;5031252;27;100574;-65
2021/01/10 00:20:27;;;;;;;28.47;14.87;;;2.10;99.90;;;-0.28;100.00;101072.41;5029432;27;101516;-64
2021/01/10 00:22:54;;;;;;;23.93;13.33;;;2.00;99.90;;;-0.27;100.00;101077.59;5030186;27;100670;-64
2021/01/10 00:25:22;;;;;;;26.23;14.60;;;2.00;99.90;;;-0.23;100.00;101080.91;5030119;27;100047;-68
2021/01/10 00:27:49;;;;;;;25.03;13.27;;;2.00;99.90;;;-0.28;100.00;101082.94;5030944;27;100006;-65
2021/01/10 00:30:19;;;;;;;25.73;13.50;;;2.10;99.90;;;-0.21;100.00;101079.09;5029278;27;100795;-65
2021/01/10 00:32:50;;;;;;;22.90;13.57;;;2.10;99.90;;;-0.23;100.00;101083.56;5029729;27;100629;-66
2021/01/10 00:35:17;;;;;;;26.47;13.07;;;2.10;99.90;;;-0.23;100.00;101080.91;5029370;27;100136;-66
2021/01/10 00:37:50;;;;;;;27.67;14.10;;;2.10;99.90;;;-0.24;100.00;101082.69;5030383;27;100314;-66
2021/01/10 00:40:17;;;;;;;24.77;13.53;;;2.60;99.90;;;-0.25;100.00;101085.44;5029134;27;101065;-65
2021/01/10 00:42:44;;;;;;;26.37;13.73;;;2.10;99.90;;;-0.23;100.00;101083.56;5029140;27;100109;-66
2021/01/10 00:45:12;;;;;;;24.47;13.07;;;2.00;99.90;;;-0.27;100.00;101090.75;5010844;27;100404;-66
2021/01/10 00:47:40;;;;;;;26.60;14.67;;;2.00;99.90;;;-0.29;100.00;101087.34;5010883;27;100160;-67
2021/01/10 00:50:09;;;;;;;25.67;12.70;;;2.10;99.90;;;-0.30;100.00;101087.41;5010317;27;102154;-66
2021/01/10 00:52:36;;;;;;;25.10;13.57;;;3.10;99.90;;;-0.29;100.00;101092.59;5029300;27;100500;-65
2021/01/10 00:55:07;;;;;;;25.97;14.10;;;2.10;99.90;;;-0.27;100.00;101095.16;5010529;27;100068;-66
2021/01/10 00:57:33;;;;;;;27.00;13.97;;;1.90;99.90;;;-0.22;100.00;101101.03;5010012;27;100663;-66
2021/01/10 01:00:01;;;;;;;26.27;14.47;;;2.10;99.90;;;-0.28;100.00;101102.19;5009723;27;102696;-65
2021/01/10 01:02:28;;;;;;;28.80;13.27;;;1.90;99.90;;;-0.24;100.00;101102.88;5009706;27;102539;-65
2021/01/10 01:04:54;;;;;;;26.40;13.47;;;2.10;99.90;;;-0.28;100.00;101107.44;5010376;27;100295;-66
2021/01/10 01:07:23;;;;;;;24.43;13.77;;;2.00;99.90;;;-0.29;100.00;101113.63;5027500;27;100295;-67
2021/01/10 01:09:50;;;;;;;23.20;11.93;;;2.00;99.90;;;-0.23;100.00;101112.47;5009794;27;103309;-67
2021/01/10 01:12:17;;;;;;;24.53;12.23;;;2.10;99.90;;;-0.27;100.00;101113.56;5027901;27;101097;-67
2021/01/10 01:14:44;;;;;;;22.07;11.83;;;2.20;99.90;;;-0.34;100.00;101115.59;5029916;27;99993;-67
2021/01/10 01:17:10;;;;;;;23.97;13.27;;;2.20;99.90;;;-0.24;100.00;101119.53;5029739;27;100128;-65
2021/01/10 01:19:36;;;;;;;25.63;14.00;;;2.00;99.90;;;-0.31;100.00;101120.72;5029457;27;100738;-66
2021/01/10 01:22:03;;;;;;;24.13;12.70;;;2.20;99.90;;;-0.27;100.00;101124.09;5029230;27;100477;-66
2021/01/10 01:24:29;;;;;;;24.10;12.33;;;2.10;99.90;;;-0.25;100.00;101124.88;5029522;27;100135;-66
2021/01/10 01:26:56;;;;;;;26.00;13.63;;;2.10;99.90;;;-0.31;100.00;101120.72;5029890;27;100311;-66
2021/01/10 01:29:23;;;;;;;25.67;13.23;;;2.10;99.90;;;-0.29;100.00;101125.94;5029542;27;100006;-65
2021/01/10 01:31:50;;;;;;;24.73;11.90;;;1.20;99.90;;;-0.30;100.00;101124.22;5028036;27;100673;-65
2021/01/10 01:34:16;;;;;;;22.77;12.47;;;2.10;99.90;;;-0.30;100.00;101125.06;5029215;27;100024;-65
2021/01/10 01:36:43;;;;;;;23.37;13.33;;;2.10;99.90;;;-0.22;100.00;101127.34;5028798;27;100027;-66
2021/01/10 01:39:09;;;;;;;24.23;13.20;;;2.20;99.90;;;-0.30;100.00;101124.22;5027819;27;101644;-66
2021/01/10 01:41:36;;;;;;;27.27;13.50;;;2.20;99.90;;;-0.23;100.00;101123.84;5028051;27;100310;-65
2021/01/10 01:44:03;;;;;;;22.83;12.70;;;2.20;99.90;;;-0.19;100.00;101129.84;5028813;27;100072;-67
2021/01/10 01:46:34;;;;;;;25.23;13.90;;;2.20;99.90;;;-0.25;100.00;101132.78;5028799;27;100172;-67
2021/01/10 01:49:04;;;;;;;24.93;13.67;;;2.10;99.90;;;-0.29;100.00;101132.03;5027700;27;100674;-65
2021/01/10 01:51:31;;;;;;;22.37;12.50;;;2.60;99.90;;;-0.28;100.00;101127.63;5028062;27;100044;-66
2021/01/10 01:54:00;;;;;;;25.83;13.40;;;2.10;99.90;;;-0.30;100.00;101127.69;5029154;27;100398;-65
2021/01/10 01:56:27;;;;;;;27.13;13.57;;;2.10;99.90;;;-0.27;100.00;101126.72;5028586;27;99921;-65
2021/01/10 01:59:03;;;;;;;26.47;13.57;;;2.20;99.90;;;-0.26;100.00;101123.16;5027770;27;100732;-65
2021/01/10 02:01:32;;;;;;;23.60;12.53;;;2.20;99.90;;;-0.31;100.00;101128.63;5028030;27;100243;-64
2021/01/10 02:04:15;;;;;;;24.17;13.63;;;1.20;99.90;;;-0.29;100.00;101123.28;5028819;27;100276;-66
2021/01/10 02:06:54;;;;;;;26.13;14.13;;;2.20;99.90;;;-0.25;100.00;101128.38;5028379;27;100547;-64
2021/01/10 02:09:21;;;;;;;26.20;13.53;;;2.20;99.90;;;-0.30;100.00;101121.59;5027354;27;100087;-65
2021/01/10 02:11:52;;;;;;;27.03;14.53;;;2.90;99.90;;;-0.33;100.00;101119.09;5026886;27;100975;-65
2021/01/10 02:14:23;;;;;;;23.53;13.37;;;2.70;99.90;;;-0.33;100.00;101129.59;5028651;27;99836;-64
2021/01/10 02:16:53;;;;;;;23.57;13.43;;;2.30;99.90;;;-0.32;100.00;101121.66;5028983;27;99959;-65
2021/01/10 02:19:25;;;;;;;23.83;13.57;;;2.20;99.90;;;-0.32;100.00;101121.66;5027935;27;100981;-68
2021/01/10 02:21:56;;;;;;;27.87;13.83;;;0.70;99.90;;;-0.32;100.00;101129.53;5028396;27;100430;-66
2021/01/10 02:24:24;;;;;;;22.90;12.70;;;2.00;99.90;;;-0.29;100.00;101136.44;5026901;27;99809;-65
2021/01/10 02:26:51;;;;;;;24.33;12.83;;;2.80;99.90;;;-0.28;100.00;101133.75;5028301;27;100031;-65
2021/01/10 02:29:19;;;;;;;24.03;13.10;;;2.10;99.90;;;-0.32;100.00;101133.94;5029572;27;101889;-66
2021/01/10 02:31:48;;;;;;;23.57;13.27;;;2.10;99.90;;;-0.32;100.00;101133.94;5033378;27;100841;-66
2021/01/10 02:34:17;;;;;;;23.63;13.30;;;2.10;99.90;;;-0.26;100.00;101131.91;5029179;27;99928;-65
2021/01/10 02:37:20;;;;;;;23.73;12.70;;;2.00;99.90;;;-0.31;100.00;101133.88;5012522;27;100343;-65
2021/01/10 02:40:01;;;;;;;22.27;12.80;;;2.90;99.90;;;-0.36;100.00;101133.22;5007164;27;101268;-66
2021/01/10 02:42:39;;;;;;;20.80;11.47;;;2.10;99.90;;;-0.32;100.00;101137.44;5007603;27;100903;-65
2021/01/10 02:45:11;;;;;;;24.70;14.27;;;2.20;99.90;;;-0.28;100.00;101141.63;5007440;27;100306;-64
2021/01/10 02:47:38;;;;;;;21.00;12.30;;;2.10;99.90;;;-0.30;100.00;101140.00;5026765;27;100271;-66
2021/01/10 02:50:06;;;;;;;22.23;11.87;;;2.50;99.90;;;-0.32;100.00;101140.06;5027702;27;100685;-65
2021/01/10 02:52:33;;;;;;;21.63;11.70;;;2.10;99.90;;;-0.36;100.00;101138.47;5028197;27;100584;-65
2021/01/10 02:55:00;;;;;;;24.00;13.43;;;2.10;99.90;;;-0.30;100.00;101143.47;5027237;27;100146;-66
2021/01/10 02:57:31;;;;;;;21.50;11.70;;;1.90;99.90;;;-0.29;100.00;101142.56;5027697;27;100307;-66
2021/01/10 03:00:01;;;;;;;22.80;13.53;;;2.60;99.90;;;-0.36;100.00;101135.84;5027063;27;101451;-65
2021/01/10 03:02:28;;;;;;;20.43;11.80;;;2.00;99.90;;;-0.40;100.00;101143.03;5027672;27;100534;-65
2021/01/10 03:04:55;;;;;;;20.53;11.83;;;2.10;99.90;;;-0.33;100.00;101135.72;5027855;27;100202;-65
2021/01/10 03:07:21;;;;;;;22.80;12.57;;;2.70;99.90;;;-0.32;100.00;101140.06;5027840;27;100219;-65
2021/01/10 03:09:48;;;;;;;26.83;14.00;;;2.10;99.90;;;-0.32;100.00;101137.44;5026869;27;101385;-65
2021/01/10 03:12:24;;;;;;;23.40;12.27;;;2.10;99.90;;;-0.36;100.00;101147.22;5026997;27;100806;-65
2021/01/10 03:14:52;;;;;;;24.60;12.73;;;2.00;99.90;;;-0.32;100.00;101141.84;5027046;27;100136;-65
2021/01/10 03:17:28;;;;;;;22.33;13.67;;;2.00;99.90;;;-0.36;100.00;101141.97;5028318;27;100305;-64
2021/01/10 03:19:55;;;;;;;22.33;13.47;;;2.00;99.90;;;-0.38;100.00;101142.97;5028310;27;100887;-64
2021/01/10 03:22:21;;;;;;;22.53;12.50;;;2.30;99.90;;;-0.40;100.00;101137.78;5026706;27;100006;-66
2021/01/10 03:24:48;;;;;;;22.20;13.10;;;1.90;99.90;;;-0.41;100.00;101141.34;5026680;27;100449;-65
2021/01/10 03:27:14;;;;;;;20.20;11.70;;;3.20;99.90;;;-0.40;100.00;101142.19;5028125;27;100049;-66
2021/01/10 03:29:41;;;;;;;23.30;12.40;;;1.90;99.90;;;-0.43;100.00;101142.31;5027767;27;100674;-65
2021/01/10 03:32:08;;;;;;;23.30;13.17;;;1.80;99.90;;;-0.36;100.00;101143.75;5027251;27;100753;-65
2021/01/10 03:34:34;;;;;;;25.07;14.17;;;1.90;99.90;;;-0.40;100.00;101135.16;5027876;27;99934;-65
2021/01/10 03:37:01;;;;;;;26.83;13.77;;;1.80;99.90;;;-0.39;100.00;101133.38;5027688;27;100506;-65
2021/01/10 03:39:28;;;;;;;24.37;12.27;;;2.80;99.90;;;-0.45;100.00;101133.63;5026699;27;101664;-65
2021/01/10 03:41:54;;;;;;;24.73;12.57;;;1.90;99.90;;;-0.41;100.00;101141.34;5026991;27;100343;-63
2021/01/10 03:44:21;;;;;;;24.87;13.23;;;2.00;99.90;;;-0.38;100.00;101140.34;5027168;27;100273;-65
2021/01/10 03:46:48;;;;;;;28.53;13.10;;;3.00;99.90;;;-0.23;100.00;101141.41;5026394;27;100141;-64
2021/01/10 03:49:30;;;;;;;26.07;13.37;;;1.80;99.90;;;-0.32;100.00;101133.94;5025837;27;100642;-66
2021/01/10 03:51:56;;;;;;;26.63;14.20;;;1.90;99.90;;;-0.42;100.00;101137.00;5026543;27;101071;-65
2021/01/10 03:54:23;;;;;;;25.17;13.40;;;1.10;99.90;;;-0.43;100.00;101137.91;5027068;27;100076;-68
2021/01/10 03:56:49;;;;;;;25.00;12.83;;;2.00;99.90;;;-0.39;100.00;101134.22;5026943;27;99752;-67
2021/01/10 03:59:16;;;;;;;24.30;14.50;;;2.00;99.90;;;-0.41;100.00;101133.44;5026273;27;100938;-64
2021/01/10 04:01:42;;;;;;;25.63;13.90;;;1.90;99.90;;;-0.45;100.00;101133.63;5026116;27;101137;-65
2021/01/10 04:04:10;;;;;;;25.17;12.97;;;1.90;99.90;;;-0.39;100.00;101133.38;5026723;27;100090;-67
2021/01/10 04:06:36;;;;;;;29.67;13.43;;;2.00;99.90;;;-0.47;100.00;101132.84;5027513;27;100246;-65
2021/01/10 04:09:03;;;;;;;27.07;14.17;;;2.00;99.90;;;-0.41;100.00;101138.69;5026141;27;101723;-65
2021/01/10 04:11:30;;;;;;;30.23;13.93;;;2.00;99.90;;;-0.40;100.00;101142.19;5007596;27;103369;-64
2021/01/10 04:13:56;;;;;;;26.73;13.13;;;1.90;99.90;;;-0.43;100.00;101135.28;5026524;27;100833;-65
2021/01/10 04:16:23;;;;;;;25.80;14.30;;;2.00;99.90;;;-0.45;100.00;101141.53;5026437;27;100325;-68
2021/01/10 04:18:49;;;;;;;29.77;14.67;;;2.00;99.90;;;-0.38;100.00;101148.25;5026229;27;101443;-65
2021/01/10 04:21:18;;;;;;;27.80;13.23;;;2.00;99.90;;;-0.36;100.00;101141.09;5026163;27;100314;-66
2021/01/10 04:23:45;;;;;;;28.83;14.10;;;1.90;99.90;;;-0.45;100.00;101145.00;5026025;27;100097;-65
2021/01/10 04:26:11;;;;;;;27.23;14.20;;;1.90;99.90;;;-0.32;100.00;101144.47;5032674;27;100250;-66
2021/01/10 04:28:49;;;;;;;24.97;13.73;;;2.00;99.90;;;-0.37;100.00;101144.66;5030932;27;101148;-64
2021/01/10 04:31:17;;;;;;;29.23;14.23;;;2.00;99.90;;;-0.37;100.00;101147.28;5026800;27;100793;-64
2021/01/10 04:33:43;;;;;;;27.70;14.73;;;2.00;99.90;;;-0.41;100.00;101148.38;5026912;27;100304;-64
2021/01/10 04:36:10;;;;;;;26.23;13.73;;;2.00;99.90;;;-0.38;100.00;101153.50;5026787;27;100162;-65
2021/01/10 04:38:37;;;;;;;23.50;13.07;;;2.00;99.90;;;-0.36;100.00;101149.00;5006702;27;100721;-65
2021/01/10 04:41:06;;;;;;;29.33;15.70;;;2.00;99.90;;;-0.42;100.00;101157.16;5005114;27;100746;-66
2021/01/10 04:43:33;;;;;;;25.70;14.07;;;2.00;99.90;;;-0.31;100.00;101152.28;5005799;27;100059;-65
2021/01/10 04:45:59;;;;;;;30.40;15.03;;;1.90;99.90;;;-0.27;100.00;101153.88;5005971;27;100616;-64
2021/01/10 04:48:26;;;;;;;27.33;14.43;;;2.00;99.90;;;-0.42;100.00;101147.50;5008910;27;101701;-65
2021/01/10 04:50:52;;;;;;;29.60;14.60;;;2.10;99.90;;;-0.40;100.00;101152.69;5008917;27;100390;-65
2021/01/10 04:53:21;;;;;;;26.47;14.50;;;2.10;99.90;;;-0.46;100.00;101152.97;5009406;27;100023;-67
2021/01/10 04:55:49;;;;;;;25.17;14.03;;;2.10;99.90;;;-0.41;100.00;101158.88;5009108;27;100347;-65
2021/01/10 04:58:15;;;;;;;26.33;13.40;;;2.30;99.90;;;-0.47;100.00;101167.03;5008648;27;102490;-67
2021/01/10 05:00:42;;;;;;;30.00;15.83;;;2.10;99.90;;;-0.42;100.00;101162.44;5008541;27;100837;-65
2021/01/10 05:03:11;;;;;;;24.67;12.87;;;2.10;99.90;;;-0.36;100.00;101160.38;5009505;27;100070;-65
2021/01/10 05:05:39;;;;;;;27.97;14.77;;;2.20;99.90;;;-0.42;100.00;101163.28;5018691;27;100115;-64
2021/01/10 05:08:09;;;;;;;32.20;15.23;;;2.00;99.90;;;-0.44;100.00;101161.63;5029014;27;101798;-65
2021/01/10 05:10:36;;;;;;;26.33;13.37;;;2.10;99.90;;;-0.41;100.00;101165.00;5028516;27;101399;-65
2021/01/10 05:13:05;;;;;;;153.07;27.90;;;2.10;99.90;;;-0.41;100.00;101164.13;5030021;27;100274;-66
2021/01/10 05:15:32;;;;;;;164.27;26.17;;;1.90;99.90;;;-0.36;100.00;101162.16;5029859;27;100241;-65
2021/01/10 05:17:59;;;;;;;28.17;14.30;;;2.00;99.90;;;-0.44;100.00;101173.00;5029109;27;100629;-67
2021/01/10 05:20:28;;;;;;;27.53;15.23;;;2.00;99.90;;;-0.46;100.00;101163.47;5029226;27;101232;-65
2021/01/10 05:22:54;;;;;;;25.73;13.87;;;2.00;99.90;;;-0.45;100.00;101155.53;5029439;27;100377;-65
2021/01/10 05:25:21;;;;;;;33.43;15.57;;;1.90;99.90;;;-0.48;100.00;101154.78;5028734;27;100128;-65
2021/01/10 05:27:52;;;;;;;184.07;27.63;;;2.00;99.90;;;-0.28;100.00;101164.47;5029236;27;100502;-66
2021/01/10 05:30:28;;;;;;;24.13;14.07;;;2.00;99.90;;;-0.45;100.00;101170.44;5008620;27;101094;-66
2021/01/10 05:33:00;;;;;;;28.80;14.70;;;1.90;99.90;;;-0.47;100.00;101170.50;5010904;27;100221;-65
2021/01/10 05:35:27;;;;;;;28.17;14.50;;;1.90;99.90;;;-0.42;100.00;101157.16;5028406;27;100272;-66
2021/01/10 05:37:58;;;;;;;32.03;16.77;;;2.00;99.90;;;-0.47;100.00;101157.34;5028674;27;100846;-65
2021/01/10 05:40:32;;;;;;;71.43;19.10;;;2.10;99.90;;;-0.46;100.00;101163.47;5028295;27;101527;-66
2021/01/10 05:43:07;;;;;;;28.67;14.97;;;2.00;99.90;;;-0.42;100.00;101154.53;5028772;27;99957;-65
2021/01/10 05:45:37;;;;;;;27.87;14.27;;;2.00;99.90;;;-0.41;100.00;101161.50;5029479;27;100282;-65
2021/01/10 05:48:13;;;;;;;29.23;14.57;;;3.00;99.90;;;-0.54;100.00;101160.34;5028579;27;100910;-65
2021/01/10 05:50:47;;;;;;;32.10;16.03;;;2.10;99.90;;;-0.53;100.00;101155.03;5028739;27;100313;-66
2021/01/10 05:53:22;;;;;;;27.53;14.83;;;2.00;99.90;;;-0.47;100.00;101159.13;5028469;27;100301;-65
2021/01/10 05:55:54;;;;;;;681.97;86.13;;;1.90;99.90;;;-0.28;100.00;101157.41;5009601;27;100208;-66
2021/01/10 05:58:23;;;;;;;74.37;18.33;;;1.90;99.90;;;-0.41;100.00;101148.38;5028130;27;100556;-65
2021/01/10 06:00:52;;;;;;;30.87;15.80;;;2.10;99.90;;;-0.53;100.00;101159.41;5028117;27;101308;-65
2021/01/10 06:03:22;;;;;;;30.80;14.83;;;2.00;99.90;;;-0.56;100.00;101162.16;5028087;27;100264;-65
2021/01/10 06:05:56;;;;;;;27.87;14.87;;;3.10;99.90;;;-0.49;100.00;101167.09;5028126;27;99988;-68
2021/01/10 06:08:33;;;;;;;29.13;13.97;;;1.10;99.90;;;-0.54;100.00;101171.72;5032913;27;101086;-65
2021/01/10 06:11:22;;;;;;;44.50;17.77;;;1.90;99.90;;;-0.46;100.00;101164.34;5033538;27;100485;-65
2021/01/10 06:13:55;;;;;;;30.00;15.57;;;1.80;99.90;;;-0.43;100.00;101181.75;4994194;27;100691;-66
2021/01/10 06:16:25;;;;;;;27.80;14.87;;;2.00;99.90;;;-0.51;100.00;101179.47;5018876;27;100465;-65
2021/01/10 06:18:55;;;;;;;28.57;13.87;;;2.00;99.90;;;-0.55;100.00;101177.03;5028231;27;101031;-64
2021/01/10 06:21:25;;;;;;;25.57;13.97;;;1.90;99.90;;;-0.54;100.00;101184.84;5027935;27;100469;-65
2021/01/10 06:23:57;;;;;;;62.20;17.67;;;2.30;99.90;;;-0.49;100.00;101185.50;5028314;27;100157;-65
2021/01/10 06:26:26;;;;;;;29.63;14.17;;;1.90;99.90;;;-0.45;100.00;101189.72;5008323;27;100253;-65
2021/01/10 06:29:01;;;;;;;31.07;16.27;;;2.00;99.90;;;-0.44;100.00;101186.16;5008046;27;101179;-65
2021/01/10 06:31:31;;;;;;;29.20;14.53;;;2.00;99.90;;;-0.51;100.00;101187.34;5007346;27;101280;-65
2021/01/10 06:34:04;;;;;;;27.20;15.17;;;2.10;99.90;;;-0.56;100.00;101188.47;5008749;27;100313;-65
2021/01/10 06:36:34;;;;;;;24.83;12.93;;;2.10;99.90;;;-0.45;100.00;101194.09;5008095;27;100189;-66
2021/01/10 06:39:18;;;;;;;28.77;14.40;;;2.00;99.90;;;-0.40;100.00;101195.63;5007547;27;101277;-64
2021/01/10 06:42:08;;;;;;;45.80;16.77;;;2.00;99.90;;;-0.45;100.00;101192.34;5012686;27;100035;-64
2021/01/10 06:44:45;;;;;;;35.63;15.57;;;2.00;99.90;;;-0.41;100.00;101190.44;5028321;27;99990;-65
2021/01/10 06:47:19;;;;;;;24.60;13.83;;;2.00;99.90;;;-0.49;100.00;101193.38;5028616;27;99852;-64
2021/01/10 06:49:45;;;;;;;29.00;14.37;;;1.90;99.90;;;-0.53;100.00;101193.59;5027483;27;101205;-65
2021/01/10 06:52:13;;;;;;;25.33;13.87;;;1.90;99.90;;;-0.53;100.00;101194.44;5027354;27;100413;-64
2021/01/10 06:54:44;;;;;;;25.47;14.67;;;2.00;99.90;;;-0.53;100.00;101191.81;5027828;27;100287;-64
2021/01/10 06:57:13;;;;;;;25.70;13.13;;;1.20;99.90;;;-0.47;100.00;101194.16;5028029;27;99916;-64
2021/01/10 07:00:09;;;;;;;26.67;15.10;;;1.90;99.90;;;-0.50;100.00;101201.34;5027115;27;100519;-65
2021/01/10 07:03:06;;;;;;;25.87;13.93;;;2.00;99.90;;;-0.50;100.00;101196.09;5027108;27;100358;-65
2021/01/10 07:06:01;;;;;;;29.03;15.00;;;1.90;99.90;;;-0.44;100.00;101201.94;5027284;27;100113;-65
2021/01/10 07:08:32;;;;;;;25.00;14.33;;;1.90;99.90;;;-0.55;100.00;101200.69;5028068;27;100028;-65
2021/01/10 07:11:33;;;;;;;27.13;13.40;;;2.10;99.90;;;-0.55;100.00;101203.31;5025236;27;101967;-65
2021/01/10 07:14:28;;;;;;;162.50;25.97;;;1.90;99.90;;;-0.42;100.00;101202.72;5027107;27;101270;-64
2021/01/10 07:17:12;;;;;;;66.33;17.90;;;1.90;99.90;;;-0.41;100.00;101199.19;5027409;27;100110;-65
2021/01/10 07:19:45;;;;;;;26.97;13.47;;;2.60;99.90;;;-0.54;100.00;101197.13;5026905;27;100199;-65
2021/01/10 07:22:26;;;;;;;24.83;13.33;;;2.00;99.90;;;-0.54;100.00;101205.03;5026240;27;101443;-65
2021/01/10 07:24:53;;;;;;;30.80;15.50;;;1.90;99.90;;;-0.53;100.00;101204.09;5026839;27;100026;-64
2021/01/10 07:27:34;;;;;;;24.70;13.70;;;1.90;99.90;;;-0.50;100.00;101199.59;5027109;27;100191;-65
2021/01/10 07:30:23;;;;;;;25.20;13.63;;;1.90;99.90;;;-0.53;100.00;101212.84;5027459;27;100321;-61
2021/01/10 07:32:50;;;;;;;27.53;14.50;;;2.00;99.90;;;-0.48;100.00;101207.38;5026581;27;100460;-61
2021/01/10 07:35:17;;;;;;;28.30;14.47;;;2.00;99.90;;;-0.56;100.00;101214.75;5026107;27;100360;-61
2021/01/10 07:37:46;;;;;;;30.30;14.97;;;1.90;99.90;;;-0.55;100.00;101214.69;5026590;27;101444;-61
2021/01/10 07:40:23;;;;;;;27.23;15.43;;;1.90;99.90;;;-0.44;100.00;101217.72;5007744;27;100117;-60
2021/01/10 07:43:01;;;;;;;29.50;15.13;;;1.90;99.90;;;-0.47;100.00;101220.47;5024374;27;100562;-60
2021/01/10 07:45:39;;;;;;;30.57;16.03;;;1.90;99.90;;;-0.44;100.00;101224.75;5023006;27;101616;-61
2021/01/10 07:48:07;;;;;;;31.53;16.60;;;1.90;99.90;;;-0.33;100.00;101234.78;5024648;27;100136;-60
2021/01/10 07:50:34;;;;;;;27.27;15.30;;;2.00;99.90;;;-0.43;100.00;101229.09;5024607;27;100211;-61
2021/01/10 07:53:01;;;;;;;25.13;13.00;;;0.80;99.90;;;-0.49;100.00;101226.69;5023918;27;101631;-61
2021/01/10 07:55:30;;;;;;;25.67;13.37;;;1.90;99.90;;;-0.41;100.00;101229.88;5024078;27;100124;-61
2021/01/10 07:58:17;;;;;;;29.50;15.77;;;1.90;99.90;;;-0.41;100.00;101228.09;5024680;27;100026;-61
2021/01/10 08:00:51;;;;;;;30.57;13.73;;;1.90;99.90;;;-0.37;100.00;101239.31;5024338;27;100470;-62
2021/01/10 08:03:24;;;;;;;170.33;26.73;;;2.00;99.90;;;-0.28;100.00;101238.09;5023924;27;100576;-61
2021/01/10 08:06:03;;;;;;;23.57;13.70;;;2.20;99.90;;;-0.28;100.00;101243.34;5023608;27;100697;-61
2021/01/10 08:08:41;;;;;;;29.57;15.20;;;2.10;99.90;;;-0.28;100.00;101241.56;5024377;27;100083;-61
2021/01/10 08:11:08;;;;;;;26.10;14.20;;;2.00;99.90;;;-0.32;100.00;101244.41;5023727;27;100208;-60
2021/01/10 08:13:36;;;;;;;24.03;14.13;;;2.20;99.90;;;-0.31;100.00;101246.09;5024546;27;100004;-61
2021/01/10 08:16:06;;;;;;;24.80;14.73;;;2.10;99.90;;;-0.28;100.00;101246.84;5023728;27;100755;-60
2021/01/10 08:18:36;;;;;;;25.17;14.77;;;2.10;99.90;;;-0.19;100.00;101248.22;5024119;27;100243;-61
2021/01/10 08:21:06;;;;;;;34.80;14.90;;;2.30;99.90;;;-0.22;100.00;101250.97;5023629;27;100228;-60
2021/01/10 08:23:33;;;;;;;24.53;13.83;;;3.20;99.90;;;-0.31;100.00;101244.34;5027202;27;101751;-60
2021/01/10 08:26:08;;;;;;;26.33;13.67;;;2.10;99.90;;;-0.35;100.00;101250.63;5027669;27;100985;-60
2021/01/10 08:28:37;;;;;;;23.60;12.97;;;2.20;99.90;;;-0.48;100.00;101260.81;5028023;27;100039;-60
2021/01/10 08:31:06;;;;;;;26.87;13.67;;;2.20;99.90;;;-0.37;100.00;101257.72;5027818;27;100418;-61
2021/01/10 08:33:33;;;;;;;23.67;13.03;;;2.40;99.90;;;-0.29;100.00;101257.41;5027388;27;101914;-59
2021/01/10 08:36:17;;;;;;;50.17;15.33;;;2.30;99.90;;;-0.31;100.00;101252.22;5007697;27;102489;-60
2021/01/10 08:38:49;;;;;;;24.63;12.83;;;2.30;99.90;;;-0.36;100.00;101252.41;5027171;27;100066;-61
2021/01/10 08:41:28;;;;;;;23.33;12.90;;;2.20;99.90;;;-0.37;100.00;101261.22;5026935;27;100155;-61
2021/01/10 08:43:57;;;;;;;19.13;11.63;;;2.20;99.90;;;-0.36;100.00;101262.94;5026631;27;101704;-59
2021/01/10 08:46:25;;;;;;;23.43;12.80;;;2.10;99.90;;;-0.34;100.00;101267.25;5027185;27;100082;-63
2021/01/10 08:48:51;;;;;;;21.10;12.03;;;2.30;99.90;;;-0.34;100.00;101270.75;5026616;27;100361;-62
2021/01/10 08:51:30;;;;;;;22.93;14.07;;;2.20;99.90;;;-0.31;100.00;101267.16;5027050;27;99956;-63
2021/01/10 08:53:57;;;;;;;19.87;11.53;;;2.10;99.90;;;-0.52;100.00;101269.78;5027171;27;101163;-61
2021/01/10 08:56:24;;;;;;;20.73;11.53;;;2.20;99.90;;;-0.46;100.00;101274.75;5026222;27;101351;-59
2021/01/10 08:58:55;;;;;;;23.17;12.20;;;2.20;99.90;;;-0.45;100.00;101284.34;5026838;27;100140;-61
2021/01/10 09:01:24;;;;;;;31.37;13.77;;;2.10;99.90;;;-0.48;100.00;101281.84;5026440;27;100386;-59
2021/01/10 09:04:03;;;;;;;20.43;12.07;;;2.10;99.90;;;-0.44;100.00;101283.44;5026541;27;100794;-62
2021/01/10 09:06:42;;;;;;;19.53;11.27;;;2.20;99.90;;;-0.53;100.00;101288.22;5026444;27;100877;-62
2021/01/10 09:09:19;;;;;;;19.03;11.47;;;2.00;99.90;;;-0.55;100.00;101287.44;5027206;27;100378;-61
2021/01/10 09:11:55;;;;;;;19.87;11.37;;;2.10;99.90;;;-0.57;100.00;101291.91;5026567;27;99989;-61
2021/01/10 09:14:24;;;;;;;19.90;10.53;;;2.00;99.90;;;-0.63;100.00;101294.78;5026605;27;101367;-60
2021/01/10 09:16:52;;;;;;;20.43;12.37;;;2.00;99.90;;;-0.65;100.00;101302.75;5026835;27;101844;-62
2021/01/10 09:19:19;;;;;;;21.57;13.13;;;2.00;99.90;;;-0.51;100.00;101300.41;5026485;27;99969;-61
2021/01/10 09:21:48;;;;;;;22.47;12.37;;;1.80;99.90;;;-0.36;100.00;101294.47;5026677;27;100236;-62
2021/01/10 09:24:16;;;;;;;21.30;11.90;;;2.00;99.90;;;-0.42;100.00;101300.00;5026246;27;101016;-62
2021/01/10 09:26:42;;;;;;;17.73;11.20;;;1.90;99.90;;;-0.48;100.00;101297.63;5026727;27;100652;-62
2021/01/10 09:29:18;;;;;;;18.77;11.13;;;2.00;99.90;;;-0.36;100.00;101296.25;5027674;27;100003;-60
2021/01/10 09:31:47;;;;;;;19.47;11.10;;;2.10;99.90;;;-0.32;100.00;101299.63;5027282;27;100175;-61
2021/01/10 09:34:14;;;;;;;18.93;10.47;;;2.10;99.90;;;-0.32;100.00;101307.50;5025468;27;100700;-60
2021/01/10 09:36:42;;;;;;;19.87;10.77;;;2.10;99.90;;;-0.40;100.00;101303.44;5026104;27;101549;-62
2021/01/10 09:39:09;;;;;;;20.03;11.93;;;2.20;99.90;;;-0.40;100.00;101297.31;5026135;27;100244;-59
2021/01/10 09:41:53;;;;;;;19.37;11.50;;;2.10;99.90;;;-0.33;100.00;101292.66;5026801;27;100329;-62
2021/01/10 09:44:19;;;;;;;22.07;13.10;;;2.30;99.90;;;-0.42;100.00;101291.28;5026502;27;101295;-62
2021/01/10 09:46:52;;;;;;;22.63;13.33;;;2.20;99.90;;;-0.29;100.00;101292.47;5029556;27;100303;-62
2021/01/10 09:49:22;;;;;;;21.90;12.80;;;2.20;99.90;;;-0.36;100.00;101291.00;5028207;27;100321;-63
2021/01/10 09:51:53;;;;;;;23.13;13.63;;;2.30;99.90;;;-0.33;100.00;101290.00;5026568;27;100230;-62
2021/01/10 09:54:23;;;;;;;23.27;12.90;;;2.30;99.90;;;-0.36;100.00;101297.13;5026468;27;100080;-61
2021/01/10 09:56:50;;;;;;;18.73;11.00;;;2.30;99.90;;;-0.32;100.00;101295.22;5026349;27;100524;-62
2021/01/10 09:59:39;;;;;;;25.10;13.00;;;2.20;99.90;;;-0.31;100.00;101296.06;5026582;27;100091;-61
2021/01/10 10:02:15;;;;;;;23.60;13.40;;;2.30;99.90;;;-0.28;100.00;101288.06;5026910;27;100336;-61
2021/01/10 10:04:45;;;;;;;22.03;12.60;;;2.30;99.90;;;-0.33;100.00;101293.50;5025607;27;101147;-62
2021/01/10 10:07:12;;;;;;;20.17;12.40;;;2.30;99.90;;;-0.43;100.00;101293.03;5026360;27;101154;-61